createdAt,value
2022-08-03T00:01:47.031Z,99996.13
2022-08-03T00:04:15.463Z,100005.88
2022-08-03T00:06:43.759Z,100005.25
2022-08-03T00:09:11.938Z,100006.69
2022-08-03T00:11:40.397Z,100005.47
2022-08-03T00:14:08.844Z,99995.50
2022-08-03T00:16:36.923Z,100005.06
2022-08-03T00:19:05.588Z,100002.63
2022-08-03T00:21:33.655Z,100002.63
2022-08-03T00:24:01.814Z,99998.53
2022-08-03T00:26:31.732Z,100000.59
2022-08-03T00:28:59.875Z,100007.47
2022-08-03T00:31:42.220Z,100001.78
2022-08-03T00:34:16.921Z,99995.09
2022-08-03T00:37:04.443Z,100005.88
2022-08-03T00:39:33.390Z,100010.75
2022-08-03T00:42:05.487Z,100014.00
2022-08-03T00:44:41.106Z,100010.53
2022-08-03T00:47:10.753Z,100018.47
2022-08-03T00:49:41.029Z,100012.38
2022-08-03T00:52:10.582Z,100007.09
2022-08-03T00:54:39.512Z,100003.81
2022-08-03T00:57:09.021Z,100010.91
2022-08-03T00:59:38.624Z,100010.53
2022-08-03T01:02:07.099Z,100007.88
2022-08-03T01:04:35.294Z,100016.66
2022-08-03T01:07:31.275Z,100019.09
2022-08-03T01:10:14.447Z,100016.44
2022-08-03T01:12:57.864Z,100022.56
2022-08-03T01:15:44.489Z,100021.94
2022-08-03T01:18:20.651Z,100025.56
2022-08-03T01:20:53.599Z,100022.12
2022-08-03T01:23:54.291Z,100016.03
2022-08-03T01:26:53.867Z,100025.78
2022-08-03T01:29:47.417Z,100032.47
2022-08-03T01:32:59.547Z,100025.97
2022-08-03T01:35:29.516Z,100031.47
2022-08-03T01:38:03.371Z,100030.28
2022-08-03T01:40:35.953Z,100026.63
2022-08-03T01:43:07.781Z,100018.25
2022-08-03T01:45:37.886Z,100024.28
2022-08-03T01:48:07.441Z,100028.78
2022-08-03T01:50:36.452Z,100023.44
2022-08-03T01:53:08.160Z,100023.25
2022-08-03T01:55:39.061Z,100024.03
2022-08-03T01:58:08.903Z,100019.22
2022-08-03T02:00:39.709Z,100021.25
2022-08-03T02:03:10.022Z,100015.78
2022-08-03T02:05:40.785Z,100021.28
2022-08-03T02:08:13.364Z,100021.28
2022-08-03T02:10:43.356Z,100019.03
2022-08-03T02:13:14.456Z,100022.19
2022-08-03T02:15:44.848Z,100005.75
2022-08-03T02:18:15.036Z,100015.88
2022-08-03T02:20:44.563Z,100016.13
2022-08-03T02:23:16.253Z,100013.69
2022-08-03T02:26:07.379Z,100018.31
2022-08-03T02:28:40.076Z,100018.53
2022-08-03T02:31:15.695Z,100011.03
2022-08-03T02:33:50.657Z,100017.53
2022-08-03T02:36:28.672Z,100010.28
2022-08-03T02:39:01.712Z,100016.91
2022-08-03T02:41:43.584Z,100016.50
2022-08-03T02:44:13.975Z,100020.44
2022-08-03T02:46:46.953Z,100020.22
2022-08-03T02:49:41.441Z,100026.53
2022-08-03T02:52:13.238Z,100015.09
2022-08-03T02:54:48.814Z,100016.69
2022-08-03T02:57:19.697Z,100026.25
2022-08-03T02:59:49.727Z,100017.31
2022-08-03T03:02:18.997Z,100020.44
2022-08-03T03:05:50.620Z,100017.19
2022-08-03T03:07:51.649Z,100022.25
2022-08-03T03:10:23.926Z,100025.03
2022-08-03T03:12:55.708Z,100013.56
2022-08-03T03:15:26.872Z,100018.72
2022-08-03T03:17:56.301Z,100024.97
2022-08-03T03:20:26.238Z,100016.87
2022-08-03T03:23:00.863Z,100021.13
2022-08-03T03:25:32.226Z,100021.53
2022-08-03T03:28:01.642Z,100022.34
2022-08-03T03:30:31.258Z,100023.00
2022-08-03T03:32:59.464Z,100031.44
2022-08-03T03:35:28.406Z,100006.87
2022-08-03T03:37:57.379Z,100015.88
2022-08-03T03:40:25.739Z,100021.53
2022-08-03T03:42:54.082Z,100026.66
2022-08-03T03:45:24.270Z,100024.09
2022-08-03T03:47:52.521Z,100025.25
2022-08-03T03:50:22.986Z,100015.16
2022-08-03T03:52:51.466Z,100013.94
2022-08-03T03:55:19.841Z,100021.03
2022-08-03T03:57:48.459Z,100032.63
2022-08-03T04:00:20.323Z,100034.03
2022-08-03T04:02:48.785Z,100029.91
2022-08-03T04:05:35.554Z,100035.47
2022-08-03T04:08:29.470Z,100038.09
2022-08-03T04:11:29.197Z,100036.00
2022-08-03T04:14:05.184Z,100038.72
2022-08-03T04:16:40.738Z,100048.47
2022-08-03T04:19:22.747Z,100044.41
2022-08-03T04:21:57.129Z,100048.31
2022-08-03T04:24:34.056Z,100049.09
2022-08-03T04:27:06.811Z,100053.41
2022-08-03T04:29:38.601Z,100050.16
2022-08-03T04:32:14.612Z,100053.78
2022-08-03T04:34:44.000Z,100061.91
2022-08-03T04:37:17.637Z,100060.72
2022-08-03T04:39:49.870Z,100056.25
2022-08-03T04:42:21.158Z,100060.13
2022-08-03T04:44:51.998Z,100063.41
2022-08-03T04:47:21.046Z,100067.06
2022-08-03T04:49:50.334Z,100064.00
2022-08-03T04:52:18.973Z,100069.72
2022-08-03T04:54:50.601Z,100071.31
2022-08-03T04:57:22.947Z,100079.66
2022-08-03T05:00:02.746Z,100078.03
2022-08-03T05:02:32.330Z,100084.78
2022-08-03T05:05:00.839Z,100086.00
2022-08-03T05:07:35.660Z,100083.56
2022-08-03T05:10:15.176Z,100082.69
2022-08-03T05:12:48.570Z,100089.44
2022-08-03T05:15:17.247Z,100087.44
2022-08-03T05:17:45.346Z,100094.94
2022-08-03T05:20:19.070Z,100098.81
2022-08-03T05:22:47.780Z,100097.94
2022-08-03T05:25:17.801Z,100107.53
2022-08-03T05:27:48.349Z,100094.94
2022-08-03T05:30:30.502Z,100096.53
2022-08-03T05:33:03.738Z,100101.03
2022-08-03T05:36:00.784Z,100111.81
2022-08-03T05:38:28.565Z,100105.47
2022-08-03T05:41:22.765Z,100112.41
2022-08-03T05:43:46.847Z,100105.47
2022-08-03T05:46:15.762Z,100114.84
2022-08-03T05:48:44.161Z,100108.34
2022-08-03T05:51:13.577Z,100112.63
2022-08-03T05:53:43.111Z,100110.72
2022-08-03T05:56:15.155Z,100120.66
2022-08-03T05:58:48.151Z,100118.56
2022-08-03T06:01:17.616Z,100125.16
2022-08-03T06:03:46.521Z,100127.22
2022-08-03T06:06:15.165Z,100124.28
2022-08-03T06:08:45.157Z,100125.81
2022-08-03T06:11:13.878Z,100134.12
2022-08-03T06:13:42.465Z,100133.03
2022-08-03T06:16:10.639Z,100128.56
2022-08-03T06:18:40.512Z,100130.28
2022-08-03T06:21:14.195Z,100132.22
2022-08-03T06:23:53.320Z,100129.66
2022-08-03T06:26:25.737Z,100123.59
2022-08-03T06:28:55.279Z,100131.34
2022-08-03T06:31:32.757Z,100132.44
2022-08-03T06:34:32.276Z,100129.50
2022-08-03T06:36:52.987Z,100132.41
2022-08-03T06:39:23.609Z,100141.34
2022-08-03T06:41:53.652Z,100136.50
2022-08-03T06:44:22.232Z,100133.78
2022-08-03T06:46:51.306Z,100127.34
2022-08-03T06:49:19.448Z,100131.53
2022-08-03T06:52:05.933Z,100141.41
2022-08-03T06:54:35.934Z,100145.59
2022-08-03T06:57:05.445Z,100138.28
2022-08-03T07:00:10.828Z,100135.66
2022-08-03T07:02:22.441Z,100135.50
2022-08-03T07:04:50.861Z,100143.25
2022-08-03T07:07:20.664Z,100145.53
2022-08-03T07:09:56.410Z,100140.88
2022-08-03T07:12:27.545Z,100145.91
2022-08-03T07:15:00.720Z,100142.63
2022-08-03T07:17:31.581Z,100142.88
2022-08-03T07:20:03.854Z,100148.78
2022-08-03T07:22:32.343Z,100146.28
2022-08-03T07:25:00.765Z,100146.81
2022-08-03T07:27:29.732Z,100154.28
2022-08-03T07:29:58.998Z,100150.78
2022-08-03T07:32:31.332Z,100151.69
2022-08-03T07:35:01.045Z,100133.28
2022-08-03T07:37:30.916Z,100146.81
2022-08-03T07:40:01.508Z,100147.34
2022-08-03T07:42:31.170Z,100144.09
2022-08-03T07:44:59.960Z,100154.22
2022-08-03T07:47:34.768Z,100153.25
2022-08-03T07:50:06.604Z,100144.19
2022-08-03T07:52:50.237Z,100149.22
2022-08-03T07:55:21.246Z,100144.19
2022-08-03T07:58:20.614Z,100137.78
2022-08-03T08:00:53.247Z,100141.00
2022-08-03T08:03:22.182Z,100134.56
2022-08-03T08:05:50.309Z,100141.44
2022-08-03T08:08:18.625Z,100134.41
2022-08-03T08:10:58.388Z,100140.12
2022-08-03T08:13:26.922Z,100135.84
2022-08-03T08:15:55.428Z,100137.47
2022-08-03T08:18:24.184Z,100138.53
2022-08-03T08:20:52.428Z,100141.03
2022-08-03T08:23:37.933Z,100136.63
2022-08-03T08:26:11.557Z,100143.75
2022-08-03T08:28:40.194Z,100143.25
2022-08-03T08:31:08.613Z,100138.94
2022-08-03T08:34:02.537Z,100138.59
2022-08-03T08:36:25.452Z,100140.62
2022-08-03T08:38:53.788Z,100139.06
2022-08-03T08:41:22.133Z,100141.81
2022-08-03T08:43:50.687Z,100145.06
2022-08-03T08:46:23.112Z,100139.78
2022-08-03T08:48:54.806Z,100133.94
2022-08-03T08:51:59.106Z,100134.50
2022-08-03T08:54:22.852Z,100137.91
2022-08-03T08:56:52.678Z,100142.09
2022-08-03T08:59:21.932Z,100127.03
2022-08-03T09:01:50.005Z,100127.97
2022-08-03T09:04:18.574Z,100130.91
2022-08-03T09:07:04.467Z,100120.47
2022-08-03T09:10:10.755Z,100125.84
2022-08-03T09:12:42.361Z,100125.75
2022-08-03T09:15:20.362Z,100123.47
2022-08-03T09:17:51.275Z,100123.69
2022-08-03T09:20:21.461Z,100123.00
2022-08-03T09:23:19.010Z,100119.41
2022-08-03T09:26:00.000Z,100129.31
2022-08-03T09:28:56.398Z,100119.13
2022-08-03T09:31:44.412Z,100121.19
2022-08-03T09:34:16.106Z,100117.72
2022-08-03T09:36:47.283Z,100117.53
2022-08-03T09:39:40.558Z,100116.06
2022-08-03T09:42:14.950Z,100116.41
2022-08-03T09:44:48.447Z,100106.88
2022-08-03T09:47:31.124Z,100113.47
2022-08-03T09:50:06.984Z,100108.75
2022-08-03T09:52:50.235Z,100107.06
2022-08-03T09:56:30.695Z,100107.47
2022-08-03T09:58:09.626Z,100108.16
2022-08-03T10:00:56.863Z,100100.66
2022-08-03T10:03:31.435Z,100103.78
2022-08-03T10:06:14.063Z,100096.53
2022-08-03T10:08:43.035Z,100102.06
2022-08-03T10:11:11.365Z,100090.41
2022-08-03T10:13:40.189Z,100092.25
2022-08-03T10:16:22.133Z,100089.13
2022-08-03T10:18:52.416Z,100085.84
2022-08-03T10:21:22.342Z,100074.53
2022-08-03T10:23:53.623Z,100072.09
2022-08-03T10:26:25.088Z,100077.94
2022-08-03T10:28:56.638Z,100072.47
2022-08-03T10:31:26.560Z,100076.34
2022-08-03T10:33:59.374Z,100072.84
2022-08-03T10:36:32.049Z,100074.53
2022-08-03T10:39:02.878Z,100073.19
2022-08-03T10:41:48.178Z,100074.53
2022-08-03T10:44:23.309Z,100064.00
2022-08-03T10:46:52.359Z,100058.66
2022-08-03T10:49:34.355Z,100057.28
2022-08-03T10:52:13.233Z,100060.50
2022-08-03T10:55:12.215Z,100043.59
2022-08-03T10:57:58.833Z,100050.78
2022-08-03T11:00:30.539Z,100051.81
2022-08-03T11:03:03.414Z,100047.59
2022-08-03T11:05:34.181Z,100040.66
2022-08-03T11:08:24.764Z,100038.25
2022-08-03T11:10:56.533Z,100043.56
2022-08-03T11:13:28.437Z,100027.44
2022-08-03T11:16:01.739Z,100027.69
2022-08-03T11:18:32.656Z,100023.44
2022-08-03T11:21:00.891Z,100026.06
2022-08-03T11:24:04.914Z,100012.78
2022-08-03T11:26:34.830Z,100017.06
2022-08-03T11:29:30.673Z,100015.72
2022-08-03T11:31:59.221Z,100015.91
2022-08-03T11:34:27.560Z,100001.47
2022-08-03T11:37:22.963Z,100005.91
2022-08-03T11:39:54.846Z,99999.94
2022-08-03T11:42:23.199Z,99995.84
2022-08-03T11:45:01.625Z,100002.87
2022-08-03T11:47:31.075Z,99991.56
2022-08-03T11:50:02.073Z,100002.87
2022-08-03T11:52:39.447Z,99999.59
2022-08-03T11:55:13.052Z,100000.50
2022-08-03T11:59:15.326Z,99984.81
2022-08-03T12:00:32.474Z,99990.72
2022-08-03T12:03:09.559Z,99992.47
2022-08-03T12:05:48.090Z,99983.94
2022-08-03T12:08:38.463Z,99981.28
2022-08-03T12:11:09.030Z,99982.47
2022-08-03T12:14:30.063Z,99982.50
2022-08-03T12:16:29.130Z,99980.31
2022-08-03T12:19:02.772Z,99974.25
2022-08-03T12:21:31.070Z,99972.28
2022-08-03T12:24:08.491Z,99968.28
2022-08-03T12:26:58.663Z,99977.66
2022-08-03T12:29:28.428Z,99974.12
2022-08-03T12:31:56.727Z,99973.34
2022-08-03T12:34:24.845Z,99965.25
2022-08-03T12:37:00.302Z,99970.19
2022-08-03T12:39:30.960Z,99962.91
2022-08-03T12:41:59.676Z,99959.00
2022-08-03T12:44:33.342Z,99952.59
2022-08-03T12:47:02.695Z,99952.47
2022-08-03T12:49:48.472Z,99953.34
2022-08-03T12:52:19.011Z,99946.47
2022-08-03T12:55:01.262Z,99948.41
2022-08-03T12:57:41.709Z,99946.31
2022-08-03T13:00:21.716Z,99948.25
2022-08-03T13:05:55.794Z,99949.56
2022-08-03T13:08:25.463Z,99939.72
2022-08-03T13:10:53.642Z,99936.88
2022-08-03T13:13:41.297Z,99931.72
2022-08-03T13:16:09.693Z,99939.13
2022-08-03T13:18:37.839Z,99938.97
2022-08-03T13:21:06.838Z,99939.81
2022-08-03T13:23:35.253Z,99930.72
2022-08-03T13:26:03.507Z,99923.81
2022-08-03T13:28:31.703Z,99924.63
2022-08-03T13:31:00.709Z,99923.03
2022-08-03T13:33:29.007Z,99925.44
2022-08-03T13:35:58.072Z,99924.41
2022-08-03T13:38:27.475Z,99928.72
2022-08-03T13:40:56.724Z,99927.38
2022-08-03T13:43:25.304Z,99923.91
2022-08-03T13:45:57.970Z,99922.53
2022-08-03T13:48:37.705Z,99916.91
2022-08-03T13:51:21.856Z,99925.22
2022-08-03T13:53:52.446Z,99920.41
2022-08-03T13:56:20.891Z,99907.53
2022-08-03T13:58:49.134Z,99909.41
2022-08-03T14:01:29.683Z,99911.50
2022-08-03T14:04:06.034Z,99903.03
2022-08-03T14:06:49.828Z,99899.75
2022-08-03T14:09:18.613Z,99907.03
2022-08-03T14:12:06.841Z,99898.06
2022-08-03T14:14:35.493Z,99891.16
2022-08-03T14:17:03.653Z,99895.66
2022-08-03T14:19:33.183Z,99887.66
2022-08-03T14:22:13.342Z,99889.19
2022-08-03T14:24:41.424Z,99881.94
2022-08-03T14:27:09.595Z,99873.66
2022-08-03T14:29:38.530Z,99875.22
2022-08-03T14:32:11.069Z,99874.72
2022-08-03T14:34:41.432Z,99872.50
2022-08-03T14:37:09.615Z,99865.03
2022-08-03T14:42:27.316Z,99869.47
2022-08-03T14:45:01.486Z,99861.56
2022-08-03T14:47:33.479Z,99866.81
2022-08-03T14:50:38.377Z,99871.59
2022-08-03T14:53:10.517Z,99860.97
2022-08-03T14:55:50.729Z,99857.19
2022-08-03T14:58:23.715Z,99852.81
2022-08-03T15:00:53.306Z,99859.38
2022-08-03T15:03:25.014Z,99866.25
2022-08-03T15:05:55.927Z,99863.78
2022-08-03T15:08:26.060Z,99861.94
2022-08-03T15:10:55.332Z,99861.53
2022-08-03T15:13:25.309Z,99862.34
2022-08-03T15:15:53.981Z,99859.38
2022-08-03T15:18:22.138Z,99859.25
2022-08-03T15:20:50.922Z,99721.78
2022-08-03T15:23:19.603Z,99861.94
2022-08-03T15:26:28.791Z,99867.47
2022-08-03T15:28:37.464Z,99868.66
2022-08-03T15:31:06.598Z,99861.81
2022-08-03T15:33:35.316Z,99866.44
2022-08-03T15:36:04.897Z,99858.22
2022-08-03T15:38:33.034Z,99856.84
2022-08-03T15:41:01.134Z,99854.44
2022-08-03T15:43:29.748Z,99853.38
2022-08-03T15:46:27.611Z,99861.00
2022-08-03T15:48:47.350Z,99863.47
2022-08-03T15:51:15.811Z,99860.78
2022-08-03T15:53:44.079Z,99859.19
2022-08-03T15:56:16.760Z,99863.22
2022-08-03T15:59:11.278Z,99854.66
2022-08-03T16:01:35.477Z,99854.19
2022-08-03T16:04:04.506Z,99852.88
2022-08-03T16:06:35.963Z,99854.00
2022-08-03T16:09:23.591Z,99851.41
2022-08-03T16:11:55.559Z,99854.69
2022-08-03T16:14:32.100Z,99853.53
2022-08-03T16:17:01.623Z,99850.66
2022-08-03T16:19:30.598Z,99842.63
2022-08-03T16:21:58.679Z,99846.91
2022-08-03T16:24:28.453Z,99840.47
2022-08-03T16:26:57.165Z,99845.03
2022-08-03T16:29:25.458Z,99842.13
2022-08-03T16:31:53.578Z,99837.06
2022-08-03T16:34:22.019Z,99850.19
2022-08-03T16:36:50.173Z,99842.44
2022-08-03T16:39:18.451Z,99843.75
2022-08-03T16:41:53.748Z,99848.28
2022-08-03T16:44:31.132Z,99845.88
2022-08-03T16:47:00.032Z,99844.00
2022-08-03T16:49:56.103Z,99842.94
2022-08-03T16:52:18.219Z,99844.81
2022-08-03T16:54:50.538Z,99840.25
2022-08-03T16:57:55.886Z,99849.91
2022-08-03T17:00:33.960Z,99846.66
2022-08-03T17:03:04.124Z,99845.78
2022-08-03T17:05:47.062Z,99850.06
2022-08-03T17:08:16.744Z,99852.72
2022-08-03T17:10:56.178Z,99855.63
2022-08-03T17:13:38.956Z,99855.06
2022-08-03T17:16:10.482Z,99865.50
2022-08-03T17:18:47.399Z,99858.25
2022-08-03T17:21:17.529Z,99858.47
2022-08-03T17:23:58.736Z,99856.87
2022-08-03T17:26:30.423Z,99862.66
2022-08-03T17:29:11.334Z,99863.69
2022-08-03T17:31:48.768Z,99867.41
2022-08-03T17:34:20.034Z,99856.69
2022-08-03T17:37:05.433Z,99873.25
2022-08-03T17:39:58.069Z,99874.31
2022-08-03T17:42:30.634Z,99870.06
2022-08-03T17:45:02.518Z,99867.62
2022-08-03T17:47:42.799Z,99876.19
2022-08-03T17:50:24.724Z,99877.00
2022-08-03T17:53:07.702Z,99872.00
2022-08-03T17:55:58.331Z,99869.22
2022-08-03T17:58:53.514Z,99873.94
2022-08-03T18:02:02.064Z,99873.31
2022-08-03T18:04:40.509Z,99868.72
2022-08-03T18:07:12.633Z,99865.47
2022-08-03T18:10:03.700Z,99873.44
2022-08-03T18:12:45.227Z,99875.53
2022-08-03T18:15:21.208Z,99867.75
2022-08-03T18:18:02.785Z,99879.22
2022-08-03T18:20:40.947Z,99883.94
2022-08-03T18:23:24.866Z,99882.47
2022-08-03T18:26:04.708Z,99884.31
2022-08-03T18:28:34.591Z,99883.50
2022-08-03T18:31:05.922Z,99885.81
2022-08-03T18:34:16.308Z,99885.81
2022-08-03T18:36:31.139Z,99893.69
2022-08-03T18:39:02.540Z,99898.00
2022-08-03T18:41:34.583Z,99902.16
2022-08-03T18:44:07.845Z,99899.94
2022-08-03T18:47:07.330Z,99906.84
2022-08-03T18:50:19.677Z,99904.94
2022-08-03T18:53:00.990Z,99907.34
2022-08-03T18:55:35.746Z,99908.25
2022-08-03T18:58:15.726Z,99914.84
2022-08-03T19:01:15.279Z,99912.78
2022-08-03T19:04:03.366Z,99910.19
2022-08-03T19:06:36.165Z,99917.84
2022-08-03T19:09:09.433Z,99918.28
2022-08-03T19:14:44.486Z,99920.41
2022-08-03T19:17:14.147Z,99915.56
2022-08-03T19:19:52.335Z,99921.75
2022-08-03T19:22:21.471Z,99929.31
2022-08-03T19:24:52.055Z,99929.44
2022-08-03T19:27:27.041Z,99927.91
2022-08-03T19:30:02.079Z,99925.41
2022-08-03T19:32:33.339Z,99928.69
2022-08-03T19:35:13.345Z,99935.56
2022-08-03T19:37:47.054Z,99931.69
2022-08-03T19:40:19.918Z,99941.56
2022-08-03T19:42:53.466Z,99944.56
2022-08-03T19:46:05.077Z,99943.59
2022-08-03T19:48:20.711Z,99942.69
2022-08-03T19:50:53.299Z,99949.97
2022-08-03T19:53:24.309Z,99952.03
2022-08-03T19:56:06.299Z,99952.41
2022-08-03T19:58:35.781Z,99955.03
2022-08-03T20:01:19.191Z,99942.09
2022-08-03T20:03:52.217Z,99944.03
2022-08-03T20:06:23.167Z,99942.78
2022-08-03T20:08:53.818Z,99949.03
2022-08-03T20:11:28.830Z,99941.88
2022-08-03T20:13:58.417Z,99948.72
2022-08-03T20:16:26.842Z,99946.41
2022-08-03T20:18:55.237Z,99948.69
2022-08-03T20:21:27.372Z,99947.19
2022-08-03T20:24:02.782Z,99940.63
2022-08-03T20:26:53.498Z,99956.44
2022-08-03T20:29:42.536Z,99958.16
2022-08-03T20:32:11.528Z,99961.03
2022-08-03T20:34:39.777Z,99960.34
2022-08-03T20:39:57.192Z,99961.69
2022-08-03T20:42:25.326Z,99961.59
2022-08-03T20:45:06.071Z,99965.66
2022-08-03T20:47:36.347Z,99966.34
2022-08-03T20:50:12.061Z,99959.94
2022-08-03T20:52:49.359Z,99952.41
2022-08-03T20:55:20.125Z,99960.50
2022-08-03T20:57:51.785Z,99961.66
2022-08-03T21:00:21.927Z,99952.06
2022-08-03T21:02:51.127Z,99950.09
2022-08-03T21:05:21.246Z,99951.12
2022-08-03T21:08:11.578Z,99955.06
2022-08-03T21:10:45.932Z,99955.25
2022-08-03T21:13:01.611Z,99925.22
2022-08-03T21:13:07.170Z,99962.59
2022-08-03T21:13:18.171Z,99955.06
2022-08-03T21:16:03.304Z,99953.00
2022-08-03T21:18:52.180Z,99955.25
2022-08-03T21:21:23.131Z,99958.38
2022-08-03T21:23:53.937Z,99964.94
2022-08-03T21:26:25.026Z,99958.13
2022-08-03T21:28:56.526Z,99959.00
2022-08-03T21:31:26.553Z,99963.81
2022-08-03T21:33:57.018Z,99969.31
2022-08-03T21:36:27.862Z,99967.12
2022-08-03T21:38:58.991Z,99978.47
2022-08-03T21:41:32.406Z,99980.91
2022-08-03T21:44:02.078Z,99969.78
2022-08-03T21:46:35.764Z,99970.87
2022-08-03T21:50:05.165Z,99973.69
2022-08-03T21:51:58.040Z,99981.44
2022-08-03T21:54:37.539Z,99988.66
2022-08-03T21:57:19.482Z,99991.00
2022-08-03T21:59:57.008Z,99985.94
2022-08-03T22:02:32.017Z,99983.22
2022-08-03T22:05:04.828Z,99991.97
2022-08-03T22:07:34.872Z,99996.78
2022-08-03T22:10:06.369Z,99992.09
2022-08-03T22:12:35.695Z,99989.44
2022-08-03T22:15:09.915Z,99992.84
2022-08-03T22:17:55.146Z,99981.72
2022-08-03T22:20:26.231Z,99986.44
2022-08-03T22:22:57.761Z,99984.72
2022-08-03T22:25:31.740Z,99985.19
2022-08-03T22:28:03.616Z,99991.22
2022-08-03T22:30:33.342Z,99985.28
2022-08-03T22:33:02.573Z,99986.81
2022-08-03T22:35:47.507Z,99982.62
2022-08-03T22:38:19.419Z,99988.34
2022-08-03T22:40:51.206Z,99990.25
2022-08-03T22:43:24.454Z,99993.09
2022-08-03T22:46:11.223Z,99991.78
2022-08-03T22:48:41.775Z,99997.31
2022-08-03T22:51:11.140Z,99989.53
2022-08-03T22:53:39.655Z,99988.91
2022-08-03T22:56:08.849Z,99999.13
2022-08-03T22:58:37.783Z,100002.09
2022-08-03T23:01:11.665Z,100005.09
2022-08-03T23:03:58.608Z,100002.84
2022-08-03T23:06:39.003Z,100003.28
2022-08-03T23:09:10.174Z,100010.84
2022-08-03T23:11:45.714Z,100007.28
2022-08-03T23:14:18.875Z,100013.53
2022-08-03T23:16:48.225Z,100014.06
2022-08-03T23:19:25.005Z,100021.00
2022-08-03T23:22:02.327Z,100030.37
2022-08-03T23:24:39.292Z,100031.03
2022-08-03T23:27:09.430Z,100025.00
2022-08-03T23:29:42.405Z,100010.19
2022-08-03T23:32:10.824Z,100026.59
2022-08-03T23:34:58.816Z,100040.13
2022-08-03T23:37:27.176Z,100037.34
2022-08-03T23:39:58.464Z,100031.41
2022-08-03T23:42:27.714Z,100031.38
2022-08-03T23:44:59.428Z,100035.28
2022-08-03T23:47:47.371Z,100030.22
2022-08-03T23:50:17.276Z,100036.59
2022-08-03T23:52:45.692Z,100035.00
2022-08-03T23:55:52.269Z,100028.91
2022-08-03T23:58:42.997Z,100037.75
